createdAt,value
2018-07-01T00:02:54.082Z,101601.11
2018-07-01T00:05:56.231Z,101609.81
2018-07-01T00:08:58.287Z,101607.83
2018-07-01T00:12:00.378Z,101615.30
2018-07-01T00:15:02.514Z,101618.28
2018-07-01T00:18:05.967Z,101620.38
2018-07-01T00:21:08.143Z,101628.02
2018-07-01T00:24:10.210Z,101626.91
2018-07-01T00:27:12.345Z,101633.72
2018-07-01T00:30:14.446Z,101630.73
2018-07-01T00:33:17.633Z,101624.98
2018-07-01T00:36:19.628Z,101632.59
2018-07-01T00:39:21.759Z,101634.41
2018-07-01T00:42:23.776Z,101631.20
2018-07-01T00:45:26.852Z,101633.76
2018-07-01T00:48:28.867Z,101629.51
2018-07-01T00:51:30.852Z,101637.27
2018-07-01T00:54:32.899Z,101635.93
2018-07-01T00:57:36.247Z,101638.72
2018-07-01T01:00:38.273Z,101636.46
2018-07-01T01:03:40.375Z,101629.49
2018-07-01T01:06:42.478Z,101641.61
2018-07-01T01:09:44.519Z,101649.07
2018-07-01T01:12:46.685Z,101636.81
2018-07-01T01:15:48.715Z,101640.06
2018-07-01T01:18:51.857Z,101637.51
2018-07-01T01:21:54.208Z,101640.32
2018-07-01T01:24:56.392Z,101643.07
2018-07-01T01:27:58.431Z,101641.18
2018-07-01T01:31:00.533Z,101635.91
2018-07-01T01:34:02.733Z,101645.21
2018-07-01T01:37:05.496Z,101644.90
2018-07-01T01:40:09.580Z,101642.71
2018-07-01T01:43:15.845Z,101642.14
2018-07-01T01:46:34.524Z,101639.19
2018-07-01T01:49:44.077Z,101642.91
2018-07-01T01:52:51.658Z,101631.58
2018-07-01T01:56:58.260Z,101630.25
2018-07-01T02:00:05.203Z,101631.60
2018-07-01T02:03:11.700Z,101643.88
2018-07-01T02:06:16.621Z,101635.27
2018-07-01T02:09:20.964Z,101637.44
2018-07-01T02:12:23.195Z,101633.75
2018-07-01T02:15:31.831Z,101641.19
2018-07-01T02:18:36.035Z,101635.94
2018-07-01T02:21:38.260Z,101644.06
2018-07-01T02:24:45.016Z,101640.61
2018-07-01T02:27:47.135Z,101653.91
2018-07-01T02:30:49.159Z,101645.40
2018-07-01T02:33:53.312Z,101646.76
2018-07-01T02:36:55.599Z,101652.41
2018-07-01T02:39:58.825Z,101643.52
2018-07-01T02:43:00.833Z,101646.90
2018-07-01T02:46:05.112Z,101657.32
2018-07-01T02:49:07.195Z,101655.26
2018-07-01T02:52:09.680Z,101660.48
2018-07-01T02:55:11.767Z,101650.78
2018-07-01T02:58:13.806Z,101657.10
2018-07-01T03:01:15.920Z,101653.18
2018-07-01T03:04:17.989Z,101655.88
2018-07-01T03:07:20.028Z,101655.19
2018-07-01T03:10:22.295Z,101661.27
2018-07-01T03:13:24.246Z,101657.71
2018-07-01T03:16:26.351Z,101657.72
2018-07-01T03:19:28.560Z,101665.02
2018-07-01T03:22:30.544Z,101663.02
2018-07-01T03:25:32.729Z,101661.21
2018-07-01T03:28:35.884Z,101667.57
2018-07-01T03:31:38.013Z,101664.34
2018-07-01T03:34:40.101Z,101670.43
2018-07-01T03:37:42.075Z,101667.16
2018-07-01T03:40:44.222Z,101674.50
2018-07-01T03:43:46.324Z,101674.24
2018-07-01T03:46:48.287Z,101671.56
2018-07-01T03:49:50.370Z,101673.60
2018-07-01T03:52:52.541Z,101675.52
2018-07-01T03:55:54.570Z,101676.11
2018-07-01T04:01:58.441Z,101678.33
2018-07-01T04:05:00.464Z,101687.97
2018-07-01T04:08:02.596Z,101690.24
2018-07-01T04:11:05.755Z,101687.86
2018-07-01T04:14:07.987Z,101688.64
2018-07-01T04:17:10.132Z,101696.64
2018-07-01T04:20:13.353Z,101692.59
2018-07-01T04:23:15.486Z,101695.37
2018-07-01T04:26:17.435Z,101702.64
2018-07-01T04:29:19.559Z,101696.03
2018-07-01T04:32:21.719Z,101697.13
2018-07-01T04:35:23.716Z,101699.16
2018-07-01T04:38:25.695Z,101706.51
2018-07-01T04:41:27.788Z,101713.62
2018-07-01T04:44:29.880Z,101705.59
2018-07-01T04:50:33.464Z,101714.13
2018-07-01T04:53:35.908Z,101714.26
2018-07-01T04:56:37.949Z,101716.04
2018-07-01T04:59:39.997Z,101711.57
2018-07-01T05:02:41.994Z,101710.13
2018-07-01T05:05:45.084Z,101705.58
2018-07-01T05:08:47.200Z,101717.09
2018-07-01T05:11:49.275Z,101712.76
2018-07-01T05:14:51.372Z,101714.28
2018-07-01T05:17:53.424Z,101714.89
2018-07-01T05:20:56.552Z,101718.03
2018-07-01T05:23:58.613Z,101714.53
2018-07-01T05:27:00.643Z,101718.46
2018-07-01T05:30:02.882Z,101719.13
2018-07-01T05:33:05.209Z,101718.69
2018-07-01T05:36:07.303Z,101723.54
2018-07-01T05:39:10.932Z,101719.19
2018-07-01T05:42:12.931Z,101723.51
2018-07-01T05:45:19.784Z,101725.31
2018-07-01T05:48:21.808Z,101723.01
2018-07-01T05:51:24.009Z,101725.46
2018-07-01T05:54:26.943Z,101726.79
2018-07-01T05:57:29.474Z,101723.87
2018-07-01T06:00:31.636Z,101724.74
2018-07-01T06:03:33.721Z,101725.64
2018-07-01T06:06:36.935Z,101720.42
2018-07-01T06:09:40.273Z,101712.78
2018-07-01T06:12:42.532Z,101717.39
2018-07-01T06:15:44.683Z,101721.29
2018-07-01T06:18:46.856Z,101716.97
2018-07-01T06:21:48.976Z,101720.01
2018-07-01T06:24:51.078Z,101719.13
2018-07-01T06:27:53.112Z,101728.38
2018-07-01T06:30:55.210Z,101724.83
2018-07-01T06:33:57.364Z,101729.92
2018-07-01T06:36:59.443Z,101730.08
2018-07-01T06:40:01.614Z,101724.74
2018-07-01T06:43:03.772Z,101733.62
2018-07-01T06:46:06.011Z,101729.70
2018-07-01T06:49:09.894Z,101734.17
2018-07-01T06:52:11.927Z,101735.09
2018-07-01T06:55:14.838Z,101733.21
2018-07-01T06:58:17.066Z,101735.52
2018-07-01T07:01:19.559Z,101735.29
2018-07-01T07:04:21.832Z,101738.51
2018-07-01T07:07:23.961Z,101734.99
2018-07-01T07:10:26.084Z,101727.75
2018-07-01T07:13:28.103Z,101735.06
2018-07-01T07:16:30.104Z,101738.77
2018-07-01T07:19:32.192Z,101749.66
2018-07-01T07:22:36.312Z,101742.86
2018-07-01T07:25:39.819Z,101746.81
2018-07-01T07:28:41.884Z,101750.72
2018-07-01T07:31:44.362Z,101755.75
2018-07-01T07:34:46.398Z,101742.95
2018-07-01T07:37:48.538Z,101743.68
2018-07-01T07:40:50.679Z,101744.80
2018-07-01T07:43:52.990Z,101736.89
2018-07-01T07:46:55.082Z,101739.07
2018-07-01T07:49:57.183Z,101738.98
2018-07-01T07:53:00.409Z,101742.14
2018-07-01T07:56:02.588Z,101756.65
2018-07-01T07:59:04.727Z,101747.91
2018-07-01T08:02:07.152Z,101741.57
2018-07-01T08:05:10.148Z,101749.20
2018-07-01T08:08:12.242Z,101743.40
2018-07-01T08:11:14.328Z,101734.99
2018-07-01T08:14:16.366Z,101739.15
2018-07-01T08:17:18.495Z,101741.06
2018-07-01T08:20:20.629Z,101743.46
2018-07-01T08:23:23.711Z,101735.94
2018-07-01T08:26:25.747Z,101731.59
2018-07-01T08:29:28.046Z,101729.43
2018-07-01T08:32:30.079Z,101731.06
2018-07-01T08:35:32.167Z,101729.85
2018-07-01T08:38:34.311Z,101721.98
2018-07-01T08:42:45.829Z,101725.74
2018-07-01T08:45:49.069Z,101725.47
2018-07-01T08:48:51.116Z,101723.80
2018-07-01T08:51:53.307Z,101719.76
2018-07-01T08:54:55.344Z,101723.99
2018-07-01T08:57:57.466Z,101730.46
2018-07-01T09:00:59.592Z,101727.03
2018-07-01T09:04:01.749Z,101732.69
2018-07-01T09:07:03.924Z,101734.16
2018-07-01T09:10:06.099Z,101729.93
2018-07-01T09:13:08.904Z,101731.78
2018-07-01T09:16:11.085Z,101734.78
2018-07-01T09:19:15.073Z,101731.55
2018-07-01T09:22:17.235Z,101726.72
2018-07-01T09:25:19.901Z,101726.57
2018-07-01T09:28:22.067Z,101724.29
2018-07-01T09:31:24.185Z,101722.66
2018-07-01T09:34:27.319Z,101724.05
2018-07-01T09:37:29.340Z,101724.64
2018-07-01T09:40:31.420Z,101716.88
2018-07-01T09:43:33.387Z,101713.41
2018-07-01T09:46:35.904Z,101713.31
2018-07-01T09:49:38.039Z,101719.04
2018-07-01T09:52:40.113Z,101716.99
2018-07-01T09:55:42.281Z,101725.78
2018-07-01T09:58:44.244Z,101714.94
2018-07-01T10:01:46.423Z,101718.94
2018-07-01T10:04:49.121Z,101709.86
2018-07-01T10:07:52.206Z,101721.93
2018-07-01T10:10:54.321Z,101709.86
2018-07-01T10:13:56.440Z,101713.76
2018-07-01T10:16:58.609Z,101710.76
2018-07-01T10:20:00.678Z,101703.35
2018-07-01T10:23:02.812Z,101697.57
2018-07-01T10:26:04.982Z,101702.96
2018-07-01T10:29:09.085Z,101700.63
2018-07-01T10:32:11.145Z,101695.55
2018-07-01T10:35:13.327Z,101695.54
2018-07-01T10:38:15.415Z,101691.20
2018-07-01T10:41:17.535Z,101689.80
2018-07-01T10:44:20.527Z,101686.03
2018-07-01T10:47:22.743Z,101681.59
2018-07-01T10:50:24.820Z,101680.68
2018-07-01T10:53:26.820Z,101678.78
2018-07-01T10:56:28.889Z,101681.70
2018-07-01T10:59:30.852Z,101677.99
2018-07-01T11:02:32.910Z,101670.96
2018-07-01T11:05:34.974Z,101664.20
2018-07-01T11:08:37.843Z,101661.93
2018-07-01T11:11:40.431Z,101665.37
2018-07-01T11:14:42.650Z,101671.36
2018-07-01T11:17:45.272Z,101671.51
2018-07-01T11:20:47.476Z,101663.12
2018-07-01T11:23:50.969Z,101654.36
2018-07-01T11:26:53.249Z,101644.96
2018-07-01T11:29:55.115Z,101645.31
2018-07-01T11:32:57.197Z,101647.99
2018-07-01T11:35:59.250Z,101639.85
2018-07-01T11:39:01.363Z,101637.77
2018-07-01T11:42:03.578Z,101638.18
2018-07-01T11:45:05.623Z,101649.26
2018-07-01T11:48:07.710Z,101642.30
2018-07-01T11:51:09.832Z,101631.89
2018-07-01T11:54:11.879Z,101640.91
2018-07-01T11:57:14.092Z,101644.63
2018-07-01T12:00:16.262Z,101639.36
2018-07-01T12:03:19.142Z,101631.98
2018-07-01T12:06:21.255Z,101627.85
2018-07-01T12:09:24.380Z,101614.82
2018-07-01T12:12:26.456Z,101627.28
2018-07-01T12:15:28.644Z,101618.36
2018-07-01T12:18:30.687Z,101619.28
2018-07-01T12:21:32.725Z,101627.90
2018-07-01T12:24:34.836Z,101619.21
2018-07-01T12:27:37.238Z,101611.71
2018-07-01T12:30:39.683Z,101604.92
2018-07-01T12:33:41.782Z,101602.39
2018-07-01T12:36:43.967Z,101603.73
2018-07-01T12:39:46.909Z,101605.54
2018-07-01T12:42:49.007Z,101604.37
2018-07-01T12:45:51.103Z,101588.54
2018-07-01T12:48:53.226Z,101595.88
2018-07-01T12:51:55.306Z,101592.28
2018-07-01T12:54:57.567Z,101588.79
2018-07-01T12:57:59.703Z,101584.50
2018-07-01T13:01:01.970Z,101578.20
2018-07-01T13:04:04.098Z,101578.96
2018-07-01T13:07:06.721Z,101576.88
2018-07-01T13:10:08.884Z,101579.60
2018-07-01T13:13:10.886Z,101569.60
2018-07-01T13:16:13.231Z,101561.88
2018-07-01T13:19:15.615Z,101567.29
2018-07-01T13:22:18.422Z,101553.93
2018-07-01T13:25:20.816Z,101565.01
2018-07-01T13:28:22.860Z,101549.51
2018-07-01T13:31:25.166Z,101544.18
2018-07-01T13:34:27.335Z,101549.71
2018-07-01T13:37:31.563Z,101548.83
2018-07-01T13:40:33.924Z,101551.92
2018-07-01T13:43:35.882Z,101540.59
2018-07-01T13:46:37.926Z,101548.29
2018-07-01T13:49:40.133Z,101543.95
2018-07-01T13:52:45.686Z,101553.18
2018-07-01T13:55:48.816Z,101548.42
2018-07-01T13:58:51.037Z,101547.98
2018-07-01T14:01:53.177Z,101550.11
2018-07-01T14:04:55.653Z,101557.86
2018-07-01T14:07:57.771Z,101554.17
2018-07-01T14:10:59.820Z,101560.48
2018-07-01T14:14:01.962Z,101546.98
2018-07-01T14:17:04.383Z,101540.10
2018-07-01T14:20:09.483Z,101537.16
2018-07-01T14:23:11.713Z,101537.86
2018-07-01T14:26:13.928Z,101532.30
2018-07-01T14:29:15.948Z,101532.49
2018-07-01T14:32:18.690Z,101530.11
2018-07-01T14:35:20.792Z,101521.35
2018-07-01T14:38:23.062Z,101517.80
2018-07-01T14:41:25.210Z,101519.62
2018-07-01T14:44:27.340Z,101514.63
2018-07-01T14:47:29.374Z,101508.11
2018-07-01T14:50:31.452Z,101512.52
2018-07-01T14:53:33.739Z,101507.27
2018-07-01T14:56:35.830Z,101506.69
2018-07-01T14:59:38.054Z,101505.51
2018-07-01T15:02:40.236Z,101501.20
2018-07-01T15:05:42.312Z,101509.53
2018-07-01T15:08:44.562Z,101506.28
2018-07-01T15:11:46.648Z,101496.45
2018-07-01T15:14:49.511Z,101494.66
2018-07-01T15:17:51.487Z,101495.38
2018-07-01T15:20:53.852Z,101499.67
2018-07-01T15:23:55.912Z,101493.12
2018-07-01T15:26:58.102Z,101495.99
2018-07-01T15:30:06.744Z,101487.34
2018-07-01T15:33:08.831Z,101484.13
2018-07-01T15:36:11.004Z,101485.97
2018-07-01T15:39:13.039Z,101485.46
2018-07-01T15:42:15.191Z,101478.57
2018-07-01T15:45:19.322Z,101475.14
2018-07-01T15:48:22.460Z,101477.93
2018-07-01T15:51:25.564Z,101472.03
2018-07-01T15:54:27.835Z,101468.01
2018-07-01T15:57:30.006Z,101473.69
2018-07-01T16:00:32.188Z,101469.62
2018-07-01T16:03:34.214Z,101465.47
2018-07-01T16:06:36.439Z,101466.28
2018-07-01T16:09:38.530Z,101466.69
2018-07-01T16:12:40.624Z,101467.58
2018-07-01T16:15:42.726Z,101460.54
2018-07-01T16:18:44.854Z,101461.44
2018-07-01T16:21:46.916Z,101461.18
2018-07-01T16:24:55.920Z,101458.52
2018-07-01T16:28:03.958Z,101451.39
2018-07-01T16:31:06.024Z,101452.70
2018-07-01T16:34:08.093Z,101452.08
2018-07-01T16:37:10.359Z,101452.13
2018-07-01T16:40:12.502Z,101449.90
2018-07-01T16:43:14.606Z,101449.08
2018-07-01T16:46:16.873Z,101454.22
2018-07-01T16:49:19.945Z,101463.12
2018-07-01T16:52:21.996Z,101462.68
2018-07-01T16:55:25.072Z,101467.11
2018-07-01T16:58:27.208Z,101469.81
2018-07-01T17:01:29.579Z,101470.74
2018-07-01T17:04:31.671Z,101469.13
2018-07-01T17:07:36.144Z,101467.96
2018-07-01T17:10:38.223Z,101472.51
2018-07-01T17:13:40.348Z,101472.25
2018-07-01T17:16:42.375Z,101474.38
2018-07-01T17:19:44.607Z,101478.18
2018-07-01T17:22:46.576Z,101470.54
2018-07-01T17:25:53.594Z,101464.62
2018-07-01T17:28:55.693Z,101465.07
2018-07-01T17:32:03.450Z,101463.70
2018-07-01T17:35:05.568Z,101461.29
2018-07-01T17:38:07.705Z,101462.39
2018-07-01T17:41:09.731Z,101461.34
2018-07-01T17:44:11.846Z,101460.84
2018-07-01T17:47:13.948Z,101460.91
2018-07-01T17:50:16.001Z,101459.82
2018-07-01T17:53:29.748Z,101460.94
2018-07-01T17:56:31.907Z,101458.72
2018-07-01T17:59:33.999Z,101461.45
2018-07-01T18:02:36.219Z,101458.96
2018-07-01T18:05:38.871Z,101456.95
2018-07-01T18:08:41.076Z,101457.00
2018-07-01T18:11:43.167Z,101455.48
2018-07-01T18:14:45.304Z,101456.42
2018-07-01T18:17:47.426Z,101455.19
2018-07-01T18:20:50.367Z,101457.63
2018-07-01T18:24:19.498Z,101453.74
2018-07-01T18:26:54.803Z,101456.95
2018-07-01T18:29:57.012Z,101457.92
2018-07-01T18:32:59.113Z,101460.44
2018-07-01T18:36:01.259Z,101458.06
2018-07-01T18:39:06.143Z,101461.95
2018-07-01T18:42:08.175Z,101459.83
2018-07-01T18:45:10.243Z,101459.54
2018-07-01T18:48:12.325Z,101459.14
2018-07-01T18:54:16.509Z,101462.15
2018-07-01T18:57:19.732Z,101460.36
2018-07-01T19:00:22.058Z,101464.35
2018-07-01T19:03:24.617Z,101467.92
2018-07-01T19:06:26.967Z,101472.49
2018-07-01T19:09:29.073Z,101465.90
2018-07-01T19:12:31.682Z,101468.86
2018-07-01T19:15:34.160Z,101472.83
2018-07-01T19:18:36.685Z,101476.19
2018-07-01T19:21:40.180Z,101479.37
2018-07-01T19:24:42.617Z,101477.39
2018-07-01T19:27:45.676Z,101482.73
2018-07-01T19:30:48.128Z,101482.64
2018-07-01T19:33:51.015Z,101489.04
2018-07-01T19:36:53.173Z,101493.47
2018-07-01T19:39:55.374Z,101493.23
2018-07-01T19:42:57.593Z,101492.25
2018-07-01T19:45:59.512Z,101498.82
2018-07-01T19:49:01.610Z,101507.14
2018-07-01T19:52:03.830Z,101515.24
2018-07-01T19:55:06.087Z,101514.32
2018-07-01T19:58:08.105Z,101515.65
2018-07-01T20:01:10.204Z,101519.66
2018-07-01T20:04:12.413Z,101522.13
2018-07-01T20:07:14.792Z,101520.30
2018-07-01T20:10:17.005Z,101522.13
2018-07-01T20:13:19.046Z,101528.68
2018-07-01T20:16:21.133Z,101526.75
2018-07-01T20:19:23.803Z,101530.50
2018-07-01T20:22:25.904Z,101534.98
2018-07-01T20:25:27.997Z,101533.21
2018-07-01T20:28:30.135Z,101532.41
2018-07-01T20:31:32.166Z,101540.94
2018-07-01T20:34:34.258Z,101543.72
2018-07-01T20:37:36.336Z,101538.44
2018-07-01T20:40:39.432Z,101537.90
2018-07-01T20:43:41.606Z,101532.27
2018-07-01T20:46:43.642Z,101533.27
2018-07-01T20:49:45.730Z,101533.26
2018-07-01T20:52:47.710Z,101537.77
2018-07-01T20:55:49.769Z,101534.71
2018-07-01T20:58:53.326Z,101535.95
2018-07-01T21:01:56.226Z,101532.37
2018-07-01T21:04:58.384Z,101533.42
2018-07-01T21:08:00.520Z,101533.17
2018-07-01T21:11:02.561Z,101538.61
2018-07-01T21:14:04.872Z,101540.16
2018-07-01T21:17:07.055Z,101540.57
2018-07-01T21:20:09.103Z,101543.02
2018-07-01T21:23:12.149Z,101538.54
2018-07-01T21:26:14.243Z,101546.29
2018-07-01T21:29:16.274Z,101546.44
2018-07-01T21:32:19.354Z,101551.18
2018-07-01T21:35:21.490Z,101552.52
2018-07-01T21:38:23.536Z,101552.72
2018-07-01T21:41:25.673Z,101560.76
2018-07-01T21:44:27.850Z,101561.48
2018-07-01T21:47:29.974Z,101567.81
2018-07-01T21:50:32.062Z,101568.09
2018-07-01T21:53:34.003Z,101572.40
2018-07-01T21:56:36.056Z,101568.04
2018-07-01T21:59:38.098Z,101572.62
2018-07-01T22:02:40.199Z,101569.09
2018-07-01T22:05:42.161Z,101567.30
2018-07-01T22:08:44.343Z,101572.81
2018-07-01T22:11:58.776Z,101578.38
2018-07-01T22:15:17.554Z,101573.13
2018-07-01T22:18:19.631Z,101575.97
2018-07-01T22:21:21.783Z,101580.22
2018-07-01T22:24:25.079Z,101587.24
2018-07-01T22:27:27.164Z,101586.97
2018-07-01T22:30:29.215Z,101586.18
2018-07-01T22:33:31.297Z,101584.72
2018-07-01T22:36:33.725Z,101586.19
2018-07-01T22:39:35.730Z,101589.02
2018-07-01T22:42:37.735Z,101592.77
2018-07-01T22:45:39.924Z,101594.57
2018-07-01T22:48:41.934Z,101598.12
2018-07-01T22:51:44.118Z,101598.90
2018-07-01T22:54:46.181Z,101590.74
2018-07-01T22:57:48.259Z,101595.07
2018-07-01T23:00:50.236Z,101598.62
2018-07-01T23:03:52.285Z,101597.09
2018-07-01T23:06:55.074Z,101597.67
2018-07-01T23:09:57.128Z,101592.20
2018-07-01T23:12:59.671Z,101594.01
2018-07-01T23:16:01.856Z,101585.87
2018-07-01T23:19:04.164Z,101589.83
2018-07-01T23:22:06.210Z,101588.26
2018-07-01T23:25:08.511Z,101589.61
2018-07-01T23:28:10.566Z,101592.91
2018-07-01T23:31:12.663Z,101587.62
2018-07-01T23:34:14.678Z,101588.94
2018-07-01T23:37:16.770Z,101580.28
2018-07-01T23:40:18.912Z,101575.16
2018-07-01T23:43:21.333Z,101580.52
2018-07-01T23:46:23.408Z,101581.31
2018-07-01T23:49:27.858Z,101580.45
2018-07-01T23:52:29.963Z,101586.91
2018-07-01T23:55:32.040Z,101586.68
2018-07-01T23:58:34.175Z,101586.02
